createdAt,value
2018-02-02T00:00:41.913Z,2.10
2018-02-02T00:03:12.222Z,1.93
2018-02-02T00:05:42.525Z,2.40
2018-02-02T00:08:12.784Z,2.27
2018-02-02T00:10:43.112Z,2.30
2018-02-02T00:13:13.393Z,2.00
2018-02-02T00:15:43.651Z,2.13
2018-02-02T00:18:13.958Z,2.40
2018-02-02T00:20:45.125Z,2.30
2018-02-02T00:23:15.428Z,2.20
2018-02-02T00:25:45.643Z,2.67
2018-02-02T00:28:15.891Z,2.20
2018-02-02T00:30:46.160Z,2.30
2018-02-02T00:33:16.441Z,2.43
2018-02-02T00:35:46.750Z,1.93
2018-02-02T00:38:17.040Z,3.20
2018-02-02T00:40:48.186Z,2.27
2018-02-02T00:43:19.151Z,2.40
2018-02-02T00:45:49.919Z,2.27
2018-02-02T00:48:20.259Z,2.20
2018-02-02T00:50:56.661Z,2.50
2018-02-02T00:53:27.901Z,2.33
2018-02-02T00:55:58.153Z,2.07
2018-02-02T00:58:28.401Z,2.20
2018-02-02T01:00:59.121Z,2.13
2018-02-02T01:03:30.077Z,1.90
2018-02-02T01:06:00.871Z,2.10
2018-02-02T01:08:31.097Z,2.33
2018-02-02T01:11:01.450Z,2.33
2018-02-02T01:13:32.910Z,2.00
2018-02-02T01:16:03.290Z,1.90
2018-02-02T01:18:33.621Z,1.80
2018-02-02T01:21:03.866Z,1.80
2018-02-02T01:23:34.940Z,2.07
2018-02-02T01:26:05.225Z,2.10
2018-02-02T01:28:36.246Z,2.20
2018-02-02T01:31:08.210Z,1.93
2018-02-02T01:33:39.604Z,2.07
2018-02-02T01:36:10.888Z,2.17
2018-02-02T01:38:42.377Z,2.00
2018-02-02T01:41:12.908Z,1.90
2018-02-02T01:43:46.005Z,1.97
2018-02-02T01:46:16.307Z,2.00
2018-02-02T01:48:46.579Z,1.87
2018-02-02T01:51:18.074Z,2.37
2018-02-02T01:53:50.166Z,2.10
2018-02-02T01:56:20.537Z,1.90
2018-02-02T01:58:50.815Z,2.47
2018-02-02T02:01:21.217Z,1.90
2018-02-02T02:03:52.468Z,2.33
2018-02-02T02:06:22.789Z,2.70
2018-02-02T02:08:53.090Z,2.30
2018-02-02T02:11:23.366Z,2.17
2018-02-02T02:13:53.600Z,2.50
2018-02-02T02:16:27.381Z,2.00
2018-02-02T02:18:57.796Z,2.20
2018-02-02T02:21:28.828Z,2.60
2018-02-02T02:23:59.970Z,2.47
2018-02-02T02:26:30.236Z,2.10
2018-02-02T02:29:00.686Z,2.80
2018-02-02T02:31:31.670Z,2.70
2018-02-02T02:34:01.925Z,2.80
2018-02-02T02:36:33.071Z,2.60
2018-02-02T02:39:03.555Z,2.77
2018-02-02T02:41:33.857Z,3.33
2018-02-02T02:44:05.071Z,3.10
2018-02-02T02:46:36.418Z,3.63
2018-02-02T02:49:07.771Z,3.10
2018-02-02T02:51:39.496Z,3.20
2018-02-02T02:54:10.833Z,3.40
2018-02-02T02:56:41.867Z,3.17
2018-02-02T02:59:13.146Z,2.60
2018-02-02T03:01:44.524Z,2.80
2018-02-02T03:04:15.631Z,2.90
2018-02-02T03:06:47.572Z,3.70
2018-02-02T03:09:18.510Z,3.20
2018-02-02T03:11:49.481Z,3.13
2018-02-02T03:14:20.651Z,4.03
2018-02-02T03:16:51.933Z,3.57
2018-02-02T03:19:23.337Z,3.40
2018-02-02T03:21:54.391Z,3.53
2018-02-02T03:24:25.130Z,3.40
2018-02-02T03:26:56.369Z,3.27
2018-02-02T03:29:27.703Z,3.73
2018-02-02T03:31:59.824Z,3.00
2018-02-02T03:34:30.789Z,3.77
2018-02-02T03:37:02.191Z,3.90
2018-02-02T03:39:33.468Z,4.53
2018-02-02T03:42:04.357Z,3.60
2018-02-02T03:44:35.764Z,3.67
2018-02-02T03:47:07.300Z,4.13
2018-02-02T03:49:38.299Z,3.77
2018-02-02T03:52:09.621Z,3.67
2018-02-02T03:54:40.753Z,4.13
2018-02-02T03:57:11.929Z,4.33
2018-02-02T03:59:43.157Z,5.50
2018-02-02T04:02:14.298Z,5.30
2018-02-02T04:04:45.237Z,5.10
2018-02-02T04:07:16.264Z,4.80
2018-02-02T04:09:47.414Z,4.90
2018-02-02T04:12:18.972Z,4.13
2018-02-02T04:14:50.304Z,4.80
2018-02-02T04:17:21.492Z,5.23
2018-02-02T04:19:52.397Z,5.43
2018-02-02T04:22:23.784Z,6.27
2018-02-02T04:24:55.948Z,5.73
2018-02-02T04:27:27.354Z,5.80
2018-02-02T04:29:59.428Z,4.50
2018-02-02T04:32:30.764Z,5.20
2018-02-02T04:35:02.122Z,4.87
2018-02-02T04:37:33.243Z,4.90
2018-02-02T04:40:04.182Z,4.63
2018-02-02T04:42:35.589Z,4.87
2018-02-02T04:45:06.724Z,4.10
2018-02-02T04:47:37.635Z,4.30
2018-02-02T04:50:08.809Z,4.70
2018-02-02T04:52:39.658Z,4.67
2018-02-02T04:55:10.629Z,5.00
2018-02-02T04:57:41.564Z,5.73
2018-02-02T05:00:12.150Z,5.60
2018-02-02T05:02:43.283Z,5.23
2018-02-02T05:05:14.608Z,4.83
2018-02-02T05:07:46.240Z,5.40
2018-02-02T05:10:17.321Z,5.17
2018-02-02T05:12:48.940Z,5.40
2018-02-02T05:15:20.108Z,6.10
2018-02-02T05:17:51.324Z,5.80
2018-02-02T05:20:22.326Z,6.10
2018-02-02T05:22:57.408Z,4.80
2018-02-02T05:25:28.717Z,5.03
2018-02-02T05:28:00.236Z,4.70
2018-02-02T05:30:31.137Z,4.80
2018-02-02T05:33:02.153Z,5.33
2018-02-02T05:35:33.710Z,5.07
2018-02-02T05:38:04.861Z,5.00
2018-02-02T05:40:35.999Z,5.13
2018-02-02T05:43:07.164Z,4.80
2018-02-02T05:45:38.174Z,4.70
2018-02-02T05:48:09.642Z,4.17
2018-02-02T05:50:41.008Z,5.50
2018-02-02T05:53:11.955Z,5.33
2018-02-02T05:55:42.987Z,5.23
2018-02-02T05:58:13.824Z,5.03
2018-02-02T06:00:45.174Z,6.20
2018-02-02T06:03:16.132Z,6.33
2018-02-02T06:05:47.248Z,5.83
2018-02-02T06:08:18.832Z,6.60
2018-02-02T06:10:50.131Z,7.27
2018-02-02T06:13:21.298Z,6.60
2018-02-02T06:15:53.441Z,6.23
2018-02-02T06:18:24.725Z,6.47
2018-02-02T06:20:55.546Z,6.03
2018-02-02T06:23:26.869Z,6.30
2018-02-02T06:25:57.828Z,5.73
2018-02-02T06:28:29.224Z,5.37
2018-02-02T06:31:00.499Z,5.97
2018-02-02T06:33:31.037Z,5.50
2018-02-02T06:36:02.602Z,5.33
2018-02-02T06:38:33.811Z,6.23
2018-02-02T06:41:05.080Z,6.33
2018-02-02T06:43:36.169Z,5.63
2018-02-02T06:46:06.936Z,5.50
2018-02-02T06:48:41.646Z,5.17
2018-02-02T06:51:13.616Z,5.20
2018-02-02T06:53:45.135Z,4.80
2018-02-02T06:56:16.494Z,5.30
2018-02-02T06:58:47.869Z,5.53
2018-02-02T07:01:19.206Z,5.67
2018-02-02T07:03:50.519Z,5.93
2018-02-02T07:06:21.681Z,6.00
2018-02-02T07:08:52.933Z,5.50
2018-02-02T07:11:23.941Z,5.30
2018-02-02T07:13:55.498Z,5.73
2018-02-02T07:16:26.666Z,4.60
2018-02-02T07:18:57.795Z,5.30
2018-02-02T07:21:28.968Z,5.10
2018-02-02T07:24:00.312Z,5.90
2018-02-02T07:26:31.347Z,5.83
2018-02-02T07:29:05.046Z,5.17
2018-02-02T07:31:36.401Z,4.93
2018-02-02T07:34:07.529Z,5.40
2018-02-02T07:36:38.280Z,5.70
2018-02-02T07:39:09.624Z,4.63
2018-02-02T07:41:40.733Z,5.33
2018-02-02T07:44:12.286Z,5.27
2018-02-02T07:46:44.014Z,8.30
2018-02-02T07:49:18.596Z,7.20
2018-02-02T07:51:49.431Z,7.10
2018-02-02T07:54:20.504Z,5.93
2018-02-02T07:56:56.872Z,5.40
2018-02-02T07:59:27.958Z,5.17
2018-02-02T08:01:58.228Z,4.50
2018-02-02T08:04:28.539Z,5.00
2018-02-02T08:06:58.791Z,4.73
2018-02-02T08:09:29.049Z,5.10
2018-02-02T08:11:59.269Z,4.70
2018-02-02T08:14:30.533Z,4.93
2018-02-02T08:17:01.925Z,5.30
2018-02-02T08:19:33.438Z,5.27
2018-02-02T08:22:04.997Z,5.50
2018-02-02T08:24:36.507Z,4.90
2018-02-02T08:27:07.477Z,4.77
2018-02-02T08:29:38.212Z,5.70
2018-02-02T08:32:09.359Z,5.20
2018-02-02T08:34:40.496Z,5.43
2018-02-02T08:37:12.064Z,4.93
2018-02-02T08:39:43.531Z,5.37
2018-02-02T08:42:14.554Z,5.43
2018-02-02T08:44:54.787Z,5.30
2018-02-02T08:47:25.846Z,5.27
2018-02-02T08:49:57.228Z,4.87
2018-02-02T08:52:28.600Z,5.13
2018-02-02T08:54:59.534Z,4.97
2018-02-02T08:57:31.028Z,6.10
2018-02-02T09:00:03.751Z,5.30
2018-02-02T09:02:35.142Z,4.70
2018-02-02T09:05:06.694Z,5.20
2018-02-02T09:07:38.098Z,4.70
2018-02-02T09:10:09.598Z,5.07
2018-02-02T09:12:40.578Z,5.10
2018-02-02T09:15:11.633Z,4.80
2018-02-02T09:17:42.650Z,4.60
2018-02-02T09:20:14.089Z,4.80
2018-02-02T09:22:44.938Z,5.10
2018-02-02T09:25:15.462Z,4.50
2018-02-02T09:27:45.568Z,4.90
2018-02-02T09:30:16.501Z,4.07
2018-02-02T09:32:47.474Z,4.10
2018-02-02T09:35:18.407Z,4.20
2018-02-02T09:37:49.269Z,4.10
2018-02-02T09:40:20.105Z,3.73
2018-02-02T09:42:51.259Z,3.93
2018-02-02T09:45:22.566Z,3.77
2018-02-02T09:47:53.585Z,4.00
2018-02-02T09:50:24.904Z,4.07
2018-02-02T09:52:56.000Z,3.80
2018-02-02T09:55:26.905Z,3.60
2018-02-02T09:57:58.132Z,4.33
2018-02-02T10:00:29.376Z,4.30
2018-02-02T10:03:01.009Z,4.27
2018-02-02T10:05:32.352Z,4.53
2018-02-02T10:08:04.080Z,4.13
2018-02-02T10:10:35.539Z,3.90
2018-02-02T10:13:06.667Z,4.00
2018-02-02T10:15:38.340Z,4.30
2018-02-02T10:18:09.475Z,3.67
2018-02-02T10:20:40.704Z,3.80
2018-02-02T10:23:11.998Z,3.77
2018-02-02T10:25:42.952Z,3.77
2018-02-02T10:28:14.712Z,3.77
2018-02-02T10:30:46.097Z,3.73
2018-02-02T10:33:17.341Z,3.27
2018-02-02T10:35:48.736Z,3.77
2018-02-02T10:38:19.897Z,3.57
2018-02-02T10:40:51.867Z,2.97
2018-02-02T10:43:23.310Z,3.30
2018-02-02T10:45:54.593Z,3.23
2018-02-02T10:48:28.856Z,3.90
2018-02-02T10:51:00.507Z,3.27
2018-02-02T10:53:31.404Z,3.20
2018-02-02T10:56:02.713Z,3.10
2018-02-02T10:58:33.848Z,3.60
2018-02-02T11:01:10.034Z,4.00
2018-02-02T11:03:45.651Z,3.47
2018-02-02T11:06:16.487Z,3.53
2018-02-02T11:08:47.789Z,3.80
2018-02-02T11:11:19.130Z,3.47
2018-02-02T11:13:50.683Z,3.27
2018-02-02T11:16:21.724Z,3.00
2018-02-02T11:18:52.761Z,2.93
2018-02-02T11:21:24.286Z,3.17
2018-02-02T11:23:55.010Z,3.20
2018-02-02T11:26:25.992Z,3.20
2018-02-02T11:28:57.235Z,2.80
2018-02-02T11:31:28.379Z,2.90
2018-02-02T11:33:59.325Z,2.83
2018-02-02T11:36:30.265Z,3.10
2018-02-02T11:39:01.713Z,3.20
2018-02-02T11:41:33.286Z,2.93
2018-02-02T11:44:04.414Z,3.60
2018-02-02T11:46:35.512Z,3.60
2018-02-02T11:49:06.556Z,3.13
2018-02-02T11:51:37.532Z,3.23
2018-02-02T11:54:08.707Z,3.13
2018-02-02T11:56:39.672Z,3.77
2018-02-02T11:59:10.652Z,3.17
2018-02-02T12:01:42.213Z,3.17
2018-02-02T12:04:13.349Z,3.20
2018-02-02T12:06:44.940Z,3.20
2018-02-02T12:09:16.000Z,2.83
2018-02-02T12:11:46.958Z,2.77
2018-02-02T12:14:18.050Z,3.37
2018-02-02T12:16:49.026Z,3.33
2018-02-02T12:19:19.928Z,3.37
2018-02-02T12:21:51.896Z,3.43
2018-02-02T12:24:27.619Z,3.47
2018-02-02T12:30:08.203Z,3.10
2018-02-02T12:32:44.360Z,3.80
2018-02-02T12:35:30.003Z,3.40
2018-02-02T12:38:01.085Z,3.00
2018-02-02T12:40:31.924Z,3.13
2018-02-02T12:43:03.180Z,3.00
2018-02-02T12:45:34.865Z,3.00
2018-02-02T12:48:06.445Z,3.53
2018-02-02T12:50:48.084Z,2.97
2018-02-02T12:53:19.380Z,3.13
2018-02-02T12:55:50.928Z,3.00
2018-02-02T12:58:22.516Z,3.27
2018-02-02T13:00:53.799Z,2.77
2018-02-02T13:03:24.365Z,3.30
2018-02-02T13:05:55.697Z,3.20
2018-02-02T13:08:27.125Z,3.00
2018-02-02T13:10:58.597Z,3.13
2018-02-02T13:13:30.312Z,3.07
2018-02-02T13:16:01.528Z,2.93
2018-02-02T13:18:32.653Z,2.67
2018-02-02T13:21:03.943Z,2.93
2018-02-02T13:23:34.718Z,2.60
2018-02-02T13:26:06.097Z,2.83
2018-02-02T13:28:37.163Z,2.97
2018-02-02T13:31:08.154Z,3.03
2018-02-02T13:33:39.728Z,3.20
2018-02-02T13:36:11.262Z,3.03
2018-02-02T13:38:43.026Z,2.70
2018-02-02T13:41:14.336Z,2.80
2018-02-02T13:43:45.664Z,2.67
2018-02-02T13:46:17.110Z,2.90
2018-02-02T13:48:48.283Z,2.93
2018-02-02T13:51:19.573Z,2.63
2018-02-02T13:53:50.964Z,2.67
2018-02-02T13:56:21.966Z,2.73
2018-02-02T13:58:52.790Z,2.70
2018-02-02T14:01:24.098Z,2.90
2018-02-02T14:03:55.039Z,2.97
2018-02-02T14:06:26.274Z,2.80
2018-02-02T14:08:57.064Z,2.93
2018-02-02T14:11:28.287Z,3.27
2018-02-02T14:13:59.184Z,2.87
2018-02-02T14:16:30.129Z,2.40
2018-02-02T14:19:05.068Z,2.53
2018-02-02T14:21:36.194Z,2.97
2018-02-02T14:24:07.308Z,3.00
2018-02-02T14:26:38.460Z,2.87
2018-02-02T14:29:09.832Z,2.90
2018-02-02T14:31:41.371Z,2.80
2018-02-02T14:34:12.432Z,3.03
2018-02-02T14:36:43.662Z,3.43
2018-02-02T14:39:15.242Z,2.70
2018-02-02T14:41:46.331Z,2.77
2018-02-02T14:44:19.360Z,3.27
2018-02-02T14:46:50.352Z,3.50
2018-02-02T14:49:21.841Z,3.10
2018-02-02T14:51:52.922Z,3.50
2018-02-02T14:54:23.929Z,3.20
2018-02-02T14:56:55.186Z,3.10
2018-02-02T14:59:26.625Z,3.17
2018-02-02T15:01:58.032Z,3.13
2018-02-02T15:04:29.319Z,3.60
2018-02-02T15:07:00.628Z,2.83
2018-02-02T15:09:31.413Z,2.70
2018-02-02T15:12:03.628Z,2.50
2018-02-02T15:14:35.129Z,3.10
2018-02-02T15:17:06.485Z,2.87
2018-02-02T15:19:37.747Z,3.00
2018-02-02T15:22:09.338Z,3.00
2018-02-02T15:24:40.692Z,3.27
2018-02-02T15:27:11.874Z,3.10
2018-02-02T15:29:43.427Z,2.90
2018-02-02T15:32:14.578Z,3.27
2018-02-02T15:34:45.605Z,2.53
2018-02-02T15:37:16.412Z,3.40
2018-02-02T15:39:48.260Z,3.27
2018-02-02T15:42:19.161Z,3.27
2018-02-02T15:44:50.693Z,3.30
2018-02-02T15:47:23.065Z,2.97
2018-02-02T15:49:54.405Z,3.30
2018-02-02T15:52:25.485Z,3.00
2018-02-02T15:54:56.728Z,3.30
2018-02-02T15:57:28.473Z,3.23
2018-02-02T16:00:00.641Z,3.50
2018-02-02T16:02:31.728Z,2.87
2018-02-02T16:05:02.924Z,2.97
2018-02-02T16:07:34.061Z,3.67
2018-02-02T16:10:05.436Z,3.30
2018-02-02T16:12:36.750Z,3.40
2018-02-02T16:15:07.752Z,2.93
2018-02-02T16:17:38.453Z,3.13
2018-02-02T16:20:10.200Z,3.63
2018-02-02T16:22:41.322Z,3.63
2018-02-02T16:25:12.499Z,3.70
2018-02-02T16:27:43.827Z,3.50
2018-02-02T16:30:15.326Z,3.60
2018-02-02T16:32:46.297Z,3.57
2018-02-02T16:35:17.682Z,3.70
2018-02-02T16:37:48.919Z,4.30
2018-02-02T16:40:20.204Z,4.00
2018-02-02T16:42:51.083Z,4.03
2018-02-02T16:45:22.253Z,4.23
2018-02-02T16:47:53.684Z,4.17
2018-02-02T16:50:24.936Z,4.43
2018-02-02T16:52:56.033Z,4.20
2018-02-02T16:55:26.586Z,4.33
2018-02-02T16:57:57.806Z,4.80
2018-02-02T17:00:28.090Z,4.70
2018-02-02T17:02:58.291Z,4.43
2018-02-02T17:05:28.588Z,5.07
2018-02-02T17:07:59.245Z,5.90
2018-02-02T17:10:29.564Z,5.97
2018-02-02T17:13:00.006Z,6.43
2018-02-02T17:15:30.292Z,5.97
2018-02-02T17:18:00.567Z,6.23
2018-02-02T17:20:30.868Z,6.97
2018-02-02T17:23:01.298Z,6.03
2018-02-02T17:25:31.617Z,5.80
2018-02-02T17:28:02.042Z,5.63
2018-02-02T17:30:32.358Z,6.87
2018-02-02T17:33:02.649Z,6.90
2018-02-02T17:35:32.970Z,6.33
2018-02-02T17:38:03.233Z,5.80
2018-02-02T17:40:33.557Z,6.17
2018-02-02T17:43:03.800Z,5.40
2018-02-02T17:45:34.118Z,4.27
2018-02-02T17:48:04.421Z,4.17
2018-02-02T17:50:34.657Z,4.57
2018-02-02T17:53:04.981Z,4.70
2018-02-02T17:55:35.294Z,4.47
2018-02-02T17:58:05.572Z,3.93
2018-02-02T18:00:41.017Z,4.10
2018-02-02T18:03:11.677Z,3.30
2018-02-02T18:05:42.024Z,3.57
2018-02-02T18:08:12.508Z,3.43
2018-02-02T18:10:42.923Z,3.40
2018-02-02T18:13:13.245Z,3.23
2018-02-02T18:15:43.556Z,3.63
2018-02-02T18:18:13.952Z,4.40
2018-02-02T18:20:44.237Z,4.27
2018-02-02T18:23:14.494Z,3.87
2018-02-02T18:25:44.791Z,3.30
2018-02-02T18:28:15.040Z,3.30
2018-02-02T18:30:45.342Z,2.90
2018-02-02T18:33:15.690Z,2.60
2018-02-02T18:35:46.030Z,3.13
2018-02-02T18:38:16.280Z,2.90
2018-02-02T18:40:46.609Z,2.60
2018-02-02T18:43:16.905Z,3.10
2018-02-02T18:45:47.232Z,2.77
2018-02-02T18:48:17.528Z,2.60
2018-02-02T18:50:47.819Z,2.50
2018-02-02T18:53:18.102Z,3.00
2018-02-02T18:55:48.367Z,3.53
2018-02-02T18:58:18.593Z,3.23
2018-02-02T19:00:48.829Z,2.37
2018-02-02T19:03:19.986Z,2.33
2018-02-02T19:05:50.284Z,2.60
2018-02-02T19:08:20.530Z,2.40
2018-02-02T19:10:50.829Z,2.10
2018-02-02T19:13:21.095Z,2.53
2018-02-02T19:15:51.372Z,2.93
2018-02-02T19:18:21.649Z,3.20
2018-02-02T19:20:51.914Z,3.20
2018-02-02T19:23:22.149Z,2.40
2018-02-02T19:25:52.414Z,2.60
2018-02-02T19:28:22.684Z,2.00
2018-02-02T19:30:53.038Z,2.40
2018-02-02T19:33:23.374Z,2.67
2018-02-02T19:35:53.611Z,3.10
2018-02-02T19:38:23.851Z,3.17
2018-02-02T19:40:54.272Z,3.00
2018-02-02T19:43:24.533Z,3.10
2018-02-02T19:45:54.768Z,2.87
2018-02-02T19:48:25.006Z,2.53
2018-02-02T19:50:55.245Z,2.13
2018-02-02T19:53:25.534Z,1.97
2018-02-02T19:55:55.875Z,1.93
2018-02-02T19:58:26.163Z,2.00
2018-02-02T20:00:56.429Z,2.40
2018-02-02T20:03:27.675Z,2.80
2018-02-02T20:05:58.115Z,2.20
2018-02-02T20:08:28.415Z,2.00
2018-02-02T20:10:58.669Z,2.10
2018-02-02T20:13:28.908Z,1.73
2018-02-02T20:15:59.221Z,2.13
2018-02-02T20:18:29.506Z,1.70
2018-02-02T20:20:59.737Z,1.77
2018-02-02T20:23:30.068Z,1.93
2018-02-02T20:26:00.381Z,1.80
2018-02-02T20:28:30.668Z,2.20
2018-02-02T20:31:01.044Z,2.17
2018-02-02T20:33:31.403Z,1.93
2018-02-02T20:36:01.721Z,1.90
2018-02-02T20:38:32.145Z,1.87
2018-02-02T20:41:02.661Z,1.90
2018-02-02T20:43:32.959Z,1.93
2018-02-02T20:46:03.305Z,1.97
2018-02-02T20:48:33.671Z,2.00
2018-02-02T20:51:09.854Z,1.77
2018-02-02T20:53:40.606Z,1.73
2018-02-02T20:56:11.063Z,1.63
2018-02-02T20:58:41.499Z,2.10
2018-02-02T21:01:11.813Z,1.40
2018-02-02T21:03:42.069Z,1.60
2018-02-02T21:06:12.385Z,1.53
2018-02-02T21:08:42.655Z,1.93
2018-02-02T21:11:12.904Z,1.77
2018-02-02T21:13:43.165Z,1.50
2018-02-02T21:16:14.139Z,1.57
2018-02-02T21:18:44.424Z,1.60
2018-02-02T21:21:14.645Z,1.87
2018-02-02T21:23:44.881Z,1.80
2018-02-02T21:26:15.135Z,1.53
2018-02-02T21:28:46.176Z,1.53
2018-02-02T21:31:16.453Z,1.80
2018-02-02T21:33:47.697Z,1.80
2018-02-02T21:36:17.980Z,1.63
2018-02-02T21:38:48.239Z,1.80
2018-02-02T21:41:18.569Z,1.30
2018-02-02T21:43:48.980Z,1.50
2018-02-02T21:46:19.505Z,1.60
2018-02-02T21:48:49.928Z,1.60
2018-02-02T21:51:20.354Z,1.33
2018-02-02T21:53:50.701Z,1.60
2018-02-02T21:56:20.978Z,1.67
2018-02-02T21:58:51.348Z,1.40
2018-02-02T22:01:21.681Z,1.53
2018-02-02T22:03:52.048Z,1.57
2018-02-02T22:06:22.430Z,1.60
2018-02-02T22:08:52.831Z,1.63
2018-02-02T22:11:23.126Z,3.33
2018-02-02T22:13:53.415Z,4.23
2018-02-02T22:16:23.736Z,4.07
2018-02-02T22:18:54.049Z,2.93
2018-02-02T22:21:25.159Z,2.00
2018-02-02T22:23:56.622Z,1.70
2018-02-02T22:26:27.835Z,1.60
2018-02-02T22:28:58.116Z,1.73
2018-02-02T22:31:28.376Z,1.73
2018-02-02T22:33:59.520Z,1.50
2018-02-02T22:36:30.976Z,1.63
2018-02-02T22:39:01.299Z,1.53
2018-02-02T22:41:31.537Z,1.70
2018-02-02T22:44:02.012Z,1.80
2018-02-02T22:46:32.289Z,1.70
2018-02-02T22:49:02.556Z,1.87
2018-02-02T22:51:32.811Z,2.83
2018-02-02T22:54:03.054Z,2.30
2018-02-02T22:56:33.362Z,1.70
2018-02-02T22:59:03.575Z,1.73
2018-02-02T23:01:33.904Z,1.90
2018-02-02T23:04:04.141Z,1.53
2018-02-02T23:06:34.376Z,1.70
2018-02-02T23:09:04.672Z,1.30
2018-02-02T23:11:35.001Z,1.77
2018-02-02T23:14:05.284Z,1.60
2018-02-02T23:16:35.561Z,1.60
2018-02-02T23:19:05.802Z,1.77
2018-02-02T23:21:36.601Z,1.63
2018-02-02T23:24:07.840Z,1.93
2018-02-02T23:26:38.107Z,1.50
2018-02-02T23:29:08.375Z,1.73
2018-02-02T23:31:39.421Z,1.80
2018-02-02T23:34:10.356Z,1.60
2018-02-02T23:36:41.508Z,1.80
2018-02-02T23:39:11.746Z,1.87
2018-02-02T23:41:42.030Z,1.80
2018-02-02T23:44:12.399Z,1.60
2018-02-02T23:46:42.806Z,1.57
2018-02-02T23:49:13.050Z,1.43
2018-02-02T23:51:43.325Z,1.57
2018-02-02T23:54:13.640Z,1.50
2018-02-02T23:56:44.070Z,1.60
2018-02-02T23:59:14.326Z,1.67
